sensor_id;sensor_type;location;lat;lon;timestamp;pressure;altitude;pressure_sealevel;temperature;humidity
84928;BME280;75189;50.640;19.242;2024-03-23T00:54:44;101188.85;;;10.10;62.89
84928;BME280;75189;50.640;19.242;2024-03-23T01:00:51;101185.41;;;10.06;63.14
84928;BME280;75189;50.640;19.242;2024-03-23T01:06:58;101180.22;;;10.02;63.34
84928;BME280;75189;50.640;19.242;2024-03-23T01:13:05;101172.24;;;9.99;63.58
84928;BME280;75189;50.640;19.242;2024-03-23T01:19:33;101164.73;;;9.86;64.00
84928;BME280;75189;50.640;19.242;2024-03-23T01:25:40;101155.95;;;9.81;64.26
84928;BME280;75189;50.640;19.242;2024-03-23T01:31:47;101152.41;;;9.79;64.42
84928;BME280;75189;50.640;19.242;2024-03-23T01:37:55;101147.30;;;9.73;64.71
84928;BME280;75189;50.640;19.242;2024-03-23T01:44:05;101133.80;;;9.72;64.90
84928;BME280;75189;50.640;19.242;2024-03-23T01:50:15;101132.55;;;9.61;65.22
84928;BME280;75189;50.640;19.242;2024-03-23T01:56:22;101131.09;;;9.54;65.51
84928;BME280;75189;50.640;19.242;2024-03-23T02:02:29;101127.74;;;9.49;65.85
84928;BME280;75189;50.640;19.242;2024-03-23T02:08:50;101132.21;;;9.50;65.96
84928;BME280;75189;50.640;19.242;2024-03-23T02:14:57;101129.01;;;9.42;66.34
84928;BME280;75189;50.640;19.242;2024-03-23T02:21:05;101120.95;;;9.40;66.49
84928;BME280;75189;50.640;19.242;2024-03-23T02:27:12;101115.66;;;9.37;66.73
84928;BME280;75189;50.640;19.242;2024-03-23T02:33:19;101105.27;;;9.28;66.99
84928;BME280;75189;50.640;19.242;2024-03-23T02:39:26;101096.34;;;9.26;67.22
84928;BME280;75189;50.640;19.242;2024-03-23T02:45:33;101082.43;;;9.32;67.15
84928;BME280;75189;50.640;19.242;2024-03-23T02:51:40;101081.16;;;9.22;67.42
84928;BME280;75189;50.640;19.242;2024-03-23T02:58:07;101022.76;;;8.96;67.61
84928;BME280;75189;50.640;19.242;2024-03-23T03:04:14;101053.13;;;9.22;67.72
84928;BME280;75189;50.640;19.242;2024-03-23T03:10:22;101054.78;;;9.24;67.71
84928;BME280;75189;50.640;19.242;2024-03-23T03:16:28;101046.58;;;9.26;67.70
84928;BME280;75189;50.640;19.242;2024-03-23T03:22:35;101034.12;;;9.22;67.81
84928;BME280;75189;50.640;19.242;2024-03-23T03:28:43;101025.96;;;9.22;67.89
84928;BME280;75189;50.640;19.242;2024-03-23T03:34:55;101015.34;;;9.17;68.03
84928;BME280;75189;50.640;19.242;2024-03-23T03:41:03;101015.44;;;9.15;68.13
84928;BME280;75189;50.640;19.242;2024-03-23T03:47:24;101023.64;;;9.14;68.23
84928;BME280;75189;50.640;19.242;2024-03-23T03:53:31;101015.67;;;9.11;68.33
84928;BME280;75189;50.640;19.242;2024-03-23T03:59:38;101014.13;;;9.05;68.52
84928;BME280;75189;50.640;19.242;2024-03-23T04:05:52;101002.58;;;9.02;68.63
84928;BME280;75189;50.640;19.242;2024-03-23T04:11:59;100999.29;;;8.95;68.80
84928;BME280;75189;50.640;19.242;2024-03-23T04:18:06;100985.23;;;8.87;69.07
84928;BME280;75189;50.640;19.242;2024-03-23T04:24:14;100972.73;;;8.84;69.21
84928;BME280;75189;50.640;19.242;2024-03-23T04:30:21;100960.17;;;8.82;69.42
84928;BME280;75189;50.640;19.242;2024-03-23T04:36:41;100953.87;;;8.81;69.61
84928;BME280;75189;50.640;19.242;2024-03-23T04:42:48;100952.12;;;8.80;69.77
84928;BME280;75189;50.640;19.242;2024-03-23T04:48:55;100951.00;;;8.84;69.79
84928;BME280;75189;50.640;19.242;2024-03-23T04:55:04;100941.02;;;8.85;69.82
84928;BME280;75189;50.640;19.242;2024-03-23T05:01:12;100940.93;;;8.86;69.87
84928;BME280;75189;50.640;19.242;2024-03-23T05:07:18;100920.02;;;8.88;69.91
84928;BME280;75189;50.640;19.242;2024-03-23T05:13:25;100913.64;;;8.89;69.95
84928;BME280;75189;50.640;19.242;2024-03-23T05:19:32;100912.13;;;8.84;70.05
84928;BME280;75189;50.640;19.242;2024-03-23T05:25:58;100905.84;;;8.83;70.20
84928;BME280;75189;50.640;19.242;2024-03-23T05:32:06;100912.04;;;8.85;70.33
84928;BME280;75189;50.640;19.242;2024-03-23T05:38:14;100905.73;;;8.85;70.38
84928;BME280;75189;50.640;19.242;2024-03-23T05:44:20;100899.34;;;8.86;70.41
84928;BME280;75189;50.640;19.242;2024-03-23T05:50:27;100902.30;;;8.81;70.54
84928;BME280;75189;50.640;19.242;2024-03-23T05:56:34;100896.00;;;8.81;70.72
84928;BME280;75189;50.640;19.242;2024-03-23T06:02:44;100893.14;;;8.84;70.76
84928;BME280;75189;50.640;19.242;2024-03-23T06:08:51;100882.09;;;8.87;70.80
84928;BME280;75189;50.640;19.242;2024-03-23T06:15:15;100890.18;;;8.88;70.92
84928;BME280;75189;50.640;19.242;2024-03-23T06:21:21;100869.23;;;8.90;71.04
84928;BME280;75189;50.640;19.242;2024-03-23T06:27:30;100851.21;;;8.89;71.20
84928;BME280;75189;50.640;19.242;2024-03-23T06:33:38;100835.02;;;8.88;71.28
84928;BME280;75189;50.640;19.242;2024-03-23T06:39:49;100804.09;;;8.90;71.39
84928;BME280;75189;50.640;19.242;2024-03-23T06:45:57;100814.80;;;8.93;71.55
84928;BME280;75189;50.640;19.242;2024-03-23T06:52:04;100813.42;;;9.02;71.73
84928;BME280;75189;50.640;19.242;2024-03-23T06:58:10;100831.82;;;9.13;71.83
84928;BME280;75189;50.640;19.242;2024-03-23T07:04:31;100817.48;;;9.27;72.03
84928;BME280;75189;50.640;19.242;2024-03-23T07:10:41;100810.90;;;9.47;72.39
84928;BME280;75189;50.640;19.242;2024-03-23T07:16:49;100807.47;;;9.75;72.58
84928;BME280;75189;50.640;19.242;2024-03-23T07:22:56;100805.17;;;9.99;72.48
84928;BME280;75189;50.640;19.242;2024-03-23T07:29:04;100803.80;;;10.22;72.46
84928;BME280;75189;50.640;19.242;2024-03-23T07:35:11;100778.14;;;10.56;72.58
84928;BME280;75189;50.640;19.242;2024-03-23T07:41:20;100788.64;;;10.90;72.52
84928;BME280;75189;50.640;19.242;2024-03-23T07:47:27;100790.39;;;11.20;72.15
84928;BME280;75189;50.640;19.242;2024-03-23T07:59:48;100769.05;;;11.68;71.44
84928;BME280;75189;50.640;19.242;2024-03-23T08:05:55;100736.66;;;11.90;70.71
84928;BME280;75189;50.640;19.242;2024-03-23T08:12:02;100730.93;;;12.08;69.67
84928;BME280;75189;50.640;19.242;2024-03-23T08:18:11;100717.73;;;12.27;69.03
84928;BME280;75189;50.640;19.242;2024-03-23T08:24:18;100709.87;;;12.61;68.41
84928;BME280;75189;50.640;19.242;2024-03-23T08:30:27;100697.24;;;13.09;67.67
84928;BME280;75189;50.640;19.242;2024-03-23T08:36:35;100676.89;;;13.50;65.72
84928;BME280;75189;50.640;19.242;2024-03-23T08:43:05;100667.54;;;14.12;64.93
84928;BME280;75189;50.640;19.242;2024-03-23T08:49:12;100642.98;;;14.57;63.63
84928;BME280;75189;50.640;19.242;2024-03-23T08:55:20;100633.98;;;14.99;61.73
84928;BME280;75189;50.640;19.242;2024-03-23T09:01:27;100616.53;;;15.44;60.95
84928;BME280;75189;50.640;19.242;2024-03-23T09:07:34;100602.08;;;15.74;58.95
84928;BME280;75189;50.640;19.242;2024-03-23T09:13:41;100590.67;;;16.20;58.43
84928;BME280;75189;50.640;19.242;2024-03-23T09:19:48;100582.59;;;16.59;57.10
84928;BME280;75189;50.640;19.242;2024-03-23T09:25:55;100584.05;;;16.94;55.07
84928;BME280;75189;50.640;19.242;2024-03-23T09:32:22;100562.52;;;17.28;54.25
84928;BME280;75189;50.640;19.242;2024-03-23T09:38:29;100541.39;;;17.58;53.97
84928;BME280;75189;50.640;19.242;2024-03-23T09:44:36;100524.87;;;17.77;52.84
84928;BME280;75189;50.640;19.242;2024-03-23T09:50:45;100513.97;;;17.95;52.20
84928;BME280;75189;50.640;19.242;2024-03-23T09:56:52;100488.70;;;18.09;49.95
84928;BME280;75189;50.640;19.242;2024-03-23T10:03:00;100488.20;;;18.23;50.62
84928;BME280;75189;50.640;19.242;2024-03-23T10:09:18;100466.38;;;18.40;50.10
84928;BME280;75189;50.640;19.242;2024-03-23T10:15:25;100462.62;;;18.58;49.51
84928;BME280;75189;50.640;19.242;2024-03-23T10:21:39;100452.54;;;18.67;46.23
84928;BME280;75189;50.640;19.242;2024-03-23T10:34:04;100421.26;;;18.86;46.45
84928;BME280;75189;50.640;19.242;2024-03-23T10:40:12;100414.80;;;18.95;46.45
84928;BME280;75189;50.640;19.242;2024-03-23T10:46:19;100391.84;;;18.95;45.17
84928;BME280;75189;50.640;19.242;2024-03-23T10:52:26;100390.67;;;18.97;44.97
84928;BME280;75189;50.640;19.242;2024-03-23T10:58:43;100385.61;;;19.11;44.81
84928;BME280;75189;50.640;19.242;2024-03-23T11:04:51;100370.44;;;19.32;45.01
84928;BME280;75189;50.640;19.242;2024-03-23T11:17:24;100328.75;;;19.18;42.57
84928;BME280;75189;50.640;19.242;2024-03-23T11:23:31;100305.13;;;19.15;42.13
84928;BME280;75189;50.640;19.242;2024-03-23T11:29:38;100296.19;;;19.21;41.18
84928;BME280;75189;50.640;19.242;2024-03-23T11:35:47;100254.54;;;19.32;41.79
84928;BME280;75189;50.640;19.242;2024-03-23T11:41:56;100244.96;;;19.53;42.19
84928;BME280;75189;50.640;19.242;2024-03-23T11:48:05;100222.27;;;19.67;41.56
84928;BME280;75189;50.640;19.242;2024-03-23T11:54:12;100197.29;;;19.85;41.59
84928;BME280;75189;50.640;19.242;2024-03-23T12:00:23;100200.78;;;20.03;41.50
84928;BME280;75189;50.640;19.242;2024-03-23T12:06:30;100180.26;;;20.06;40.96
84928;BME280;75189;50.640;19.242;2024-03-23T12:12:37;100167.46;;;19.97;40.14
84928;BME280;75189;50.640;19.242;2024-03-23T12:18:45;100132.24;;;20.07;40.62
84928;BME280;75189;50.640;19.242;2024-03-23T12:24:53;100119.80;;;20.19;39.90
84928;BME280;75189;50.640;19.242;2024-03-23T12:31:00;100106.68;;;20.21;38.42
84928;BME280;75189;50.640;19.242;2024-03-23T12:37:07;100093.54;;;20.15;38.14
84928;BME280;75189;50.640;19.242;2024-03-23T12:43:16;100063.66;;;20.19;38.60
84928;BME280;75189;50.640;19.242;2024-03-23T12:49:35;100052.93;;;20.40;39.04
84928;BME280;75189;50.640;19.242;2024-03-23T12:55:43;100027.02;;;20.49;38.51
84928;BME280;75189;50.640;19.242;2024-03-23T13:01:50;100003.84;;;20.42;36.91
84928;BME280;75189;50.640;19.242;2024-03-23T13:07:57;100015.31;;;20.23;37.62
84928;BME280;75189;50.640;19.242;2024-03-23T13:14:04;99994.80;;;20.01;37.67
84928;BME280;75189;50.640;19.242;2024-03-23T13:20:12;99995.34;;;19.96;38.29
84928;BME280;75189;50.640;19.242;2024-03-23T13:26:21;99982.95;;;19.76;37.64
84928;BME280;75189;50.640;19.242;2024-03-23T13:32:28;100004.31;;;19.57;37.78
84928;BME280;75189;50.640;19.242;2024-03-23T13:38:49;100042.93;;;19.41;37.60
84928;BME280;75189;50.640;19.242;2024-03-23T13:44:57;100122.03;;;19.16;37.83
84928;BME280;75189;50.640;19.242;2024-03-23T13:51:04;100212.91;;;18.22;44.63
84928;BME280;75189;50.640;19.242;2024-03-23T13:57:11;100258.86;;;16.74;51.16
84928;BME280;75189;50.640;19.242;2024-03-23T14:03:18;100283.11;;;15.82;53.22
84928;BME280;75189;50.640;19.242;2024-03-23T14:09:26;100307.88;;;15.30;53.81
84928;BME280;75189;50.640;19.242;2024-03-23T14:15:33;100341.00;;;14.96;54.66
84928;BME280;75189;50.640;19.242;2024-03-23T14:21:40;100349.33;;;14.42;56.55
84928;BME280;75189;50.640;19.242;2024-03-23T14:28:06;100337.16;;;14.03;56.85
84928;BME280;75189;50.640;19.242;2024-03-23T14:34:21;100340.80;;;13.81;57.51
84928;BME280;75189;50.640;19.242;2024-03-23T14:40:28;100325.30;;;13.70;57.45
84928;BME280;75189;50.640;19.242;2024-03-23T14:46:35;100336.12;;;13.60;57.51
84928;BME280;75189;50.640;19.242;2024-03-23T14:52:47;100313.13;;;13.52;57.47
84928;BME280;75189;50.640;19.242;2024-03-23T14:58:54;100280.73;;;13.36;58.00
84928;BME280;75189;50.640;19.242;2024-03-23T15:05:03;100298.23;;;13.33;58.05
84928;BME280;75189;50.640;19.242;2024-03-23T15:11:10;100260.20;;;13.19;58.57
84928;BME280;75189;50.640;19.242;2024-03-23T15:17:23;100242.20;;;13.05;59.38
84928;BME280;75189;50.640;19.242;2024-03-23T15:23:30;100238.97;;;13.00;59.55
84928;BME280;75189;50.640;19.242;2024-03-23T15:29:37;100245.30;;;13.00;59.71
84928;BME280;75189;50.640;19.242;2024-03-23T15:35:44;100273.61;;;12.99;59.96
84928;BME280;75189;50.640;19.242;2024-03-23T15:41:51;100291.98;;;12.97;60.16
84928;BME280;75189;50.640;19.242;2024-03-23T15:48:00;100318.05;;;12.90;60.96
84928;BME280;75189;50.640;19.242;2024-03-23T15:54:07;100337.13;;;12.79;61.27
84928;BME280;75189;50.640;19.242;2024-03-23T16:00:14;100306.21;;;12.67;62.02
84928;BME280;75189;50.640;19.242;2024-03-23T16:06:39;100311.17;;;12.62;62.15
84928;BME280;75189;50.640;19.242;2024-03-23T16:12:50;100347.22;;;12.43;62.70
84928;BME280;75189;50.640;19.242;2024-03-23T16:18:57;100382.74;;;12.07;63.31
84928;BME280;75189;50.640;19.242;2024-03-23T16:25:05;100412.46;;;11.73;63.32
84928;BME280;75189;50.640;19.242;2024-03-23T16:31:14;100442.36;;;11.49;62.95
84928;BME280;75189;50.640;19.242;2024-03-23T16:37:23;100460.66;;;11.21;62.95
84928;BME280;75189;50.640;19.242;2024-03-23T16:43:30;100471.97;;;11.03;62.78
84928;BME280;75189;50.640;19.242;2024-03-23T16:49:37;100490.30;;;10.74;62.69
84928;BME280;75189;50.640;19.242;2024-03-23T16:56:00;100515.08;;;10.42;62.95
84928;BME280;75189;50.640;19.242;2024-03-23T17:02:09;100563.77;;;10.18;63.30
84928;BME280;75189;50.640;19.242;2024-03-23T17:08:16;100594.55;;;9.90;62.98
84928;BME280;75189;50.640;19.242;2024-03-23T17:14:26;100626.38;;;9.43;62.64
84928;BME280;75189;50.640;19.242;2024-03-23T17:20:33;100645.61;;;9.09;62.70
84928;BME280;75189;50.640;19.242;2024-03-23T17:26:40;100670.49;;;8.85;62.86
84928;BME280;75189;50.640;19.242;2024-03-23T17:32:47;100693.75;;;8.58;62.91
84928;BME280;75189;50.640;19.242;2024-03-23T17:38:55;100712.55;;;8.28;63.17
84928;BME280;75189;50.640;19.242;2024-03-23T17:45:13;100707.24;;;8.09;63.41
84928;BME280;75189;50.640;19.242;2024-03-23T17:51:23;100712.34;;;7.98;63.56
84928;BME280;75189;50.640;19.242;2024-03-23T17:57:38;100726.13;;;7.93;63.78
84928;BME280;75189;50.640;19.242;2024-03-23T18:03:45;100763.91;;;7.79;63.92
84928;BME280;75189;50.640;19.242;2024-03-23T18:09:52;100769.16;;;7.64;64.04
84928;BME280;75189;50.640;19.242;2024-03-23T18:15:59;100773.51;;;7.50;64.38
84928;BME280;75189;50.640;19.242;2024-03-23T18:22:06;100777.31;;;7.46;64.47
84928;BME280;75189;50.640;19.242;2024-03-23T18:28:13;100794.00;;;7.36;64.65
84928;BME280;75189;50.640;19.242;2024-03-23T18:34:29;100785.46;;;7.27;64.90
84928;BME280;75189;50.640;19.242;2024-03-23T18:40:36;100785.91;;;7.18;64.97
84928;BME280;75189;50.640;19.242;2024-03-23T18:46:43;100777.84;;;7.16;64.98
84928;BME280;75189;50.640;19.242;2024-03-23T18:52:50;100770.89;;;7.10;65.19
84928;BME280;75189;50.640;19.242;2024-03-23T18:58:57;100790.80;;;7.09;65.16
84928;BME280;75189;50.640;19.242;2024-03-23T19:05:04;100782.33;;;6.98;65.30
84928;BME280;75189;50.640;19.242;2024-03-23T19:11:11;100789.84;;;6.92;65.16
84928;BME280;75189;50.640;19.242;2024-03-23T19:17:18;100800.74;;;6.90;64.92
84928;BME280;75189;50.640;19.242;2024-03-23T19:23:46;100802.49;;;6.91;64.68
84928;BME280;75189;50.640;19.242;2024-03-23T19:29:53;100801.84;;;6.86;64.65
84928;BME280;75189;50.640;19.242;2024-03-23T19:36:00;100800.74;;;6.90;64.63
84928;BME280;75189;50.640;19.242;2024-03-23T19:42:07;100790.92;;;6.87;64.58
84928;BME280;75189;50.640;19.242;2024-03-23T19:48:15;100788.07;;;6.72;64.44
84928;BME280;75189;50.640;19.242;2024-03-23T19:54:22;100774.89;;;6.64;64.44
84928;BME280;75189;50.640;19.242;2024-03-23T20:00:29;100790.32;;;6.62;64.31
84928;BME280;75189;50.640;19.242;2024-03-23T20:06:36;100794.91;;;6.60;64.44
84928;BME280;75189;50.640;19.242;2024-03-23T20:13:03;100795.12;;;6.55;64.41
84928;BME280;75189;50.640;19.242;2024-03-23T20:19:10;100813.54;;;6.47;64.37
84928;BME280;75189;50.640;19.242;2024-03-23T20:25:17;100817.12;;;6.48;64.23
84928;BME280;75189;50.640;19.242;2024-03-23T20:31:24;100806.77;;;6.37;64.04
84928;BME280;75189;50.640;19.242;2024-03-23T20:37:31;100816.02;;;6.31;64.02
84928;BME280;75189;50.640;19.242;2024-03-23T20:43:38;100836.09;;;6.26;63.94
84928;BME280;75189;50.640;19.242;2024-03-23T20:49:52;100812.25;;;6.15;63.78
84928;BME280;75189;50.640;19.242;2024-03-23T20:56:00;100832.03;;;6.16;63.82
84928;BME280;75189;50.640;19.242;2024-03-23T21:02:18;100830.88;;;6.21;63.71
84928;BME280;75189;50.640;19.242;2024-03-23T21:08:25;100826.48;;;6.19;63.59
84928;BME280;75189;50.640;19.242;2024-03-23T21:14:32;100815.00;;;6.13;63.54
84928;BME280;75189;50.640;19.242;2024-03-23T21:20:41;100823.30;;;6.09;63.62
84928;BME280;75189;50.640;19.242;2024-03-23T21:26:48;100834.99;;;6.09;63.64
84928;BME280;75189;50.640;19.242;2024-03-23T21:32:55;100839.32;;;6.13;63.62
84928;BME280;75189;50.640;19.242;2024-03-23T21:39:02;100826.88;;;6.09;63.56
84928;BME280;75189;50.640;19.242;2024-03-23T21:45:13;100821.66;;;6.05;63.53
84928;BME280;75189;50.640;19.242;2024-03-23T21:51:33;100815.47;;;6.03;63.50
84928;BME280;75189;50.640;19.242;2024-03-23T21:57:47;100796.01;;;5.95;63.34
84928;BME280;75189;50.640;19.242;2024-03-23T22:03:54;100798.86;;;5.92;63.28
84928;BME280;75189;50.640;19.242;2024-03-23T22:10:01;100789.02;;;5.89;63.25
84928;BME280;75189;50.640;19.242;2024-03-23T22:16:08;100790.08;;;5.85;63.14
84928;BME280;75189;50.640;19.242;2024-03-23T22:22:15;100800.40;;;5.75;63.17
84928;BME280;75189;50.640;19.242;2024-03-23T22:28:23;100792.49;;;5.71;63.17
84928;BME280;75189;50.640;19.242;2024-03-23T22:34:30;100790.74;;;5.70;63.01
84928;BME280;75189;50.640;19.242;2024-03-23T22:40:58;100781.88;;;5.66;62.97
84928;BME280;75189;50.640;19.242;2024-03-23T22:47:06;100801.97;;;5.59;62.97
84928;BME280;75189;50.640;19.242;2024-03-23T22:53:13;100798.59;;;5.54;62.91
84928;BME280;75189;50.640;19.242;2024-03-23T22:59:20;100793.56;;;5.45;62.94
84928;BME280;75189;50.640;19.242;2024-03-23T23:05:29;100826.20;;;5.39;63.04
84928;BME280;75189;50.640;19.242;2024-03-23T23:11:36;100824.57;;;5.34;63.02
84928;BME280;75189;50.640;19.242;2024-03-23T23:17:43;100832.85;;;5.30;63.13
84928;BME280;75189;50.640;19.242;2024-03-23T23:23:50;100809.62;;;5.26;63.10
84928;BME280;75189;50.640;19.242;2024-03-23T23:30:06;100802.55;;;5.23;63.11
84928;BME280;75189;50.640;19.242;2024-03-23T23:36:13;100793.68;;;5.20;63.05
84928;BME280;75189;50.640;19.242;2024-03-23T23:42:20;100792.29;;;5.09;63.09
84928;BME280;75189;50.640;19.242;2024-03-23T23:48:27;100796.99;;;5.04;63.06
84928;BME280;75189;50.640;19.242;2024-03-23T23:54:34;100798.15;;;4.97;63.14
